sensor_id;sensor_type;location;lat;lon;timestamp;temperature;humidity
22850;DHT22;11591;44.792;10.358;2022-08-01T04:26:32;25.30;99.90
22850;DHT22;11591;44.792;10.358;2022-08-01T04:29:01;25.30;99.90
22850;DHT22;11591;44.792;10.358;2022-08-01T04:31:30;25.30;99.90
22850;DHT22;11591;44.792;10.358;2022-08-01T04:33:57;25.30;99.90
22850;DHT22;11591;44.792;10.358;2022-08-01T04:36:24;25.20;99.90
22850;DHT22;11591;44.792;10.358;2022-08-01T04:38:54;25.20;99.90
22850;DHT22;11591;44.792;10.358;2022-08-01T04:41:22;25.10;99.90
22850;DHT22;11591;44.792;10.358;2022-08-01T04:43:49;25.00;99.90
22850;DHT22;11591;44.792;10.358;2022-08-01T04:46:16;25.00;99.90
22850;DHT22;11591;44.792;10.358;2022-08-01T04:48:43;25.00;99.90
22850;DHT22;11591;44.792;10.358;2022-08-01T04:51:17;25.00;99.90
22850;DHT22;11591;44.792;10.358;2022-08-01T04:53:48;24.90;99.90
22850;DHT22;11591;44.792;10.358;2022-08-01T04:56:14;24.90;99.90
22850;DHT22;11591;44.792;10.358;2022-08-01T04:58:41;24.90;99.90
22850;DHT22;11591;44.792;10.358;2022-08-01T05:01:07;24.90;99.90
22850;DHT22;11591;44.792;10.358;2022-08-01T05:03:33;24.90;99.90
22850;DHT22;11591;44.792;10.358;2022-08-01T05:05:59;24.90;99.90
22850;DHT22;11591;44.792;10.358;2022-08-01T05:08:25;24.90;99.90
22850;DHT22;11591;44.792;10.358;2022-08-01T05:10:51;25.00;99.90
22850;DHT22;11591;44.792;10.358;2022-08-01T05:13:18;25.00;99.90
22850;DHT22;11591;44.792;10.358;2022-08-01T05:15:44;25.00;99.90
22850;DHT22;11591;44.792;10.358;2022-08-01T05:18:10;24.90;99.90
22850;DHT22;11591;44.792;10.358;2022-08-01T05:20:36;25.00;99.90
22850;DHT22;11591;44.792;10.358;2022-08-01T05:23:05;25.00;99.90
22850;DHT22;11591;44.792;10.358;2022-08-01T05:25:32;25.00;99.90
22850;DHT22;11591;44.792;10.358;2022-08-01T05:27:59;25.00;99.90
22850;DHT22;11591;44.792;10.358;2022-08-01T05:30:25;25.10;99.90
22850;DHT22;11591;44.792;10.358;2022-08-01T05:32:50;25.20;99.90
22850;DHT22;11591;44.792;10.358;2022-08-01T05:35:16;25.20;99.90
22850;DHT22;11591;44.792;10.358;2022-08-01T05:37:42;25.20;99.90
22850;DHT22;11591;44.792;10.358;2022-08-01T05:40:08;25.20;99.90
22850;DHT22;11591;44.792;10.358;2022-08-01T05:42:34;25.10;99.90
22850;DHT22;11591;44.792;10.358;2022-08-01T05:45:00;25.20;99.90
22850;DHT22;11591;44.792;10.358;2022-08-01T05:47:26;25.20;99.90
22850;DHT22;11591;44.792;10.358;2022-08-01T05:49:51;25.20;99.90
22850;DHT22;11591;44.792;10.358;2022-08-01T05:52:17;25.30;99.90
22850;DHT22;11591;44.792;10.358;2022-08-01T05:54:43;25.20;99.90
22850;DHT22;11591;44.792;10.358;2022-08-01T05:57:09;25.30;99.90
22850;DHT22;11591;44.792;10.358;2022-08-01T05:59:34;25.30;99.90
22850;DHT22;11591;44.792;10.358;2022-08-01T06:02:00;25.30;99.90
22850;DHT22;11591;44.792;10.358;2022-08-01T06:04:26;25.40;99.90
22850;DHT22;11591;44.792;10.358;2022-08-01T06:06:52;25.40;99.90
22850;DHT22;11591;44.792;10.358;2022-08-01T06:09:18;25.50;99.90
22850;DHT22;11591;44.792;10.358;2022-08-01T06:11:44;25.60;99.90
22850;DHT22;11591;44.792;10.358;2022-08-01T06:14:10;25.60;99.90
22850;DHT22;11591;44.792;10.358;2022-08-01T06:16:36;25.70;99.90
22850;DHT22;11591;44.792;10.358;2022-08-01T06:19:01;25.80;99.90
22850;DHT22;11591;44.792;10.358;2022-08-01T06:21:27;25.70;99.90
22850;DHT22;11591;44.792;10.358;2022-08-01T06:23:53;25.80;99.90
22850;DHT22;11591;44.792;10.358;2022-08-01T06:26:19;25.80;99.90
22850;DHT22;11591;44.792;10.358;2022-08-01T06:28:45;25.80;99.90
22850;DHT22;11591;44.792;10.358;2022-08-01T06:31:12;25.90;99.90
22850;DHT22;11591;44.792;10.358;2022-08-01T06:33:40;25.90;99.90
22850;DHT22;11591;44.792;10.358;2022-08-01T06:36:08;25.90;99.90
22850;DHT22;11591;44.792;10.358;2022-08-01T06:38:36;25.90;99.90
22850;DHT22;11591;44.792;10.358;2022-08-01T06:41:10;26.00;99.90
22850;DHT22;11591;44.792;10.358;2022-08-01T06:43:35;26.00;99.90
22850;DHT22;11591;44.792;10.358;2022-08-01T06:46:01;26.00;99.90
22850;DHT22;11591;44.792;10.358;2022-08-01T06:48:27;26.00;99.90
22850;DHT22;11591;44.792;10.358;2022-08-01T06:50:53;26.00;99.90
22850;DHT22;11591;44.792;10.358;2022-08-01T06:53:37;26.10;99.90
22850;DHT22;11591;44.792;10.358;2022-08-01T06:56:03;26.20;99.90
22850;DHT22;11591;44.792;10.358;2022-08-01T06:58:31;26.20;99.90
22850;DHT22;11591;44.792;10.358;2022-08-01T07:00:57;26.30;99.90
22850;DHT22;11591;44.792;10.358;2022-08-01T07:03:22;26.40;99.90
22850;DHT22;11591;44.792;10.358;2022-08-01T07:05:48;26.40;99.90
22850;DHT22;11591;44.792;10.358;2022-08-01T07:08:14;26.50;99.90
22850;DHT22;11591;44.792;10.358;2022-08-01T07:10:40;26.50;99.90
22850;DHT22;11591;44.792;10.358;2022-08-01T07:13:06;26.50;99.90
22850;DHT22;11591;44.792;10.358;2022-08-01T07:15:31;26.50;99.90
22850;DHT22;11591;44.792;10.358;2022-08-01T07:17:57;26.60;99.90
22850;DHT22;11591;44.792;10.358;2022-08-01T07:20:26;26.60;99.90
22850;DHT22;11591;44.792;10.358;2022-08-01T07:22:53;26.70;99.90
22850;DHT22;11591;44.792;10.358;2022-08-01T07:25:18;26.70;99.90
22850;DHT22;11591;44.792;10.358;2022-08-01T07:27:44;26.60;99.90
22850;DHT22;11591;44.792;10.358;2022-08-01T07:30:11;26.60;99.90
22850;DHT22;11591;44.792;10.358;2022-08-01T07:32:37;26.70;99.90
22850;DHT22;11591;44.792;10.358;2022-08-01T07:35:03;26.80;99.90
22850;DHT22;11591;44.792;10.358;2022-08-01T07:37:29;26.90;99.90
22850;DHT22;11591;44.792;10.358;2022-08-01T07:39:55;26.90;99.90
22850;DHT22;11591;44.792;10.358;2022-08-01T07:42:20;26.90;99.90
22850;DHT22;11591;44.792;10.358;2022-08-01T07:44:46;26.90;99.90
22850;DHT22;11591;44.792;10.358;2022-08-01T07:47:12;26.90;99.90
22850;DHT22;11591;44.792;10.358;2022-08-01T07:49:38;26.90;99.90
22850;DHT22;11591;44.792;10.358;2022-08-01T07:52:04;27.00;99.90
22850;DHT22;11591;44.792;10.358;2022-08-01T07:54:33;27.00;99.90
22850;DHT22;11591;44.792;10.358;2022-08-01T07:56:59;27.10;99.90
22850;DHT22;11591;44.792;10.358;2022-08-01T07:59:24;27.20;99.90
22850;DHT22;11591;44.792;10.358;2022-08-01T08:01:50;27.20;99.90
22850;DHT22;11591;44.792;10.358;2022-08-01T08:04:17;27.30;99.90
22850;DHT22;11591;44.792;10.358;2022-08-01T08:06:43;27.30;99.90
22850;DHT22;11591;44.792;10.358;2022-08-01T08:09:10;27.40;99.90
22850;DHT22;11591;44.792;10.358;2022-08-01T08:11:36;27.40;99.90
22850;DHT22;11591;44.792;10.358;2022-08-01T08:14:02;27.40;99.90
22850;DHT22;11591;44.792;10.358;2022-08-01T08:16:28;27.50;99.90
22850;DHT22;11591;44.792;10.358;2022-08-01T08:18:54;27.50;99.90
22850;DHT22;11591;44.792;10.358;2022-08-01T08:21:19;27.50;99.90
22850;DHT22;11591;44.792;10.358;2022-08-01T08:23:56;27.50;99.90
22850;DHT22;11591;44.792;10.358;2022-08-01T08:26:40;27.60;99.90
22850;DHT22;11591;44.792;10.358;2022-08-01T08:29:06;27.70;99.90
22850;DHT22;11591;44.792;10.358;2022-08-01T08:31:32;27.70;99.90
22850;DHT22;11591;44.792;10.358;2022-08-01T08:33:59;27.80;99.90
22850;DHT22;11591;44.792;10.358;2022-08-01T08:36:24;27.80;99.90
22850;DHT22;11591;44.792;10.358;2022-08-01T08:38:50;27.80;99.90
22850;DHT22;11591;44.792;10.358;2022-08-01T08:41:18;27.90;99.90
22850;DHT22;11591;44.792;10.358;2022-08-01T08:43:44;27.90;99.90
22850;DHT22;11591;44.792;10.358;2022-08-01T08:46:12;27.90;99.90
22850;DHT22;11591;44.792;10.358;2022-08-01T08:48:40;28.00;99.90
22850;DHT22;11591;44.792;10.358;2022-08-01T08:51:08;28.00;99.90
22850;DHT22;11591;44.792;10.358;2022-08-01T08:53:37;28.10;99.90
22850;DHT22;11591;44.792;10.358;2022-08-01T08:56:06;28.10;99.90
22850;DHT22;11591;44.792;10.358;2022-08-01T08:58:35;28.10;99.90
22850;DHT22;11591;44.792;10.358;2022-08-01T09:01:06;28.20;99.90
22850;DHT22;11591;44.792;10.358;2022-08-01T09:03:33;28.20;99.90
22850;DHT22;11591;44.792;10.358;2022-08-01T09:05:58;28.20;99.90
22850;DHT22;11591;44.792;10.358;2022-08-01T09:08:24;28.40;99.90
22850;DHT22;11591;44.792;10.358;2022-08-01T09:10:50;28.40;99.90
22850;DHT22;11591;44.792;10.358;2022-08-01T09:13:16;28.40;99.90
22850;DHT22;11591;44.792;10.358;2022-08-01T09:15:48;28.40;99.90
22850;DHT22;11591;44.792;10.358;2022-08-01T09:18:36;28.50;99.90
22850;DHT22;11591;44.792;10.358;2022-08-01T09:21:17;28.60;99.90
22850;DHT22;11591;44.792;10.358;2022-08-01T09:23:45;28.70;99.90
22850;DHT22;11591;44.792;10.358;2022-08-01T09:26:22;28.70;99.90
22850;DHT22;11591;44.792;10.358;2022-08-01T09:28:54;28.70;99.90
22850;DHT22;11591;44.792;10.358;2022-08-01T09:31:20;28.70;99.90
22850;DHT22;11591;44.792;10.358;2022-08-01T09:33:57;28.80;99.90
22850;DHT22;11591;44.792;10.358;2022-08-01T09:36:47;28.80;99.90
22850;DHT22;11591;44.792;10.358;2022-08-01T09:39:17;28.80;99.90
22850;DHT22;11591;44.792;10.358;2022-08-01T09:41:43;28.90;99.90
22850;DHT22;11591;44.792;10.358;2022-08-01T09:44:09;28.90;99.90
22850;DHT22;11591;44.792;10.358;2022-08-01T09:46:35;28.90;99.90
22850;DHT22;11591;44.792;10.358;2022-08-01T09:49:05;29.00;99.90
22850;DHT22;11591;44.792;10.358;2022-08-01T09:51:36;29.00;99.90
22850;DHT22;11591;44.792;10.358;2022-08-01T09:54:04;29.00;99.90
22850;DHT22;11591;44.792;10.358;2022-08-01T09:56:42;29.10;99.90
22850;DHT22;11591;44.792;10.358;2022-08-01T09:59:08;29.10;99.90
22850;DHT22;11591;44.792;10.358;2022-08-01T10:01:52;29.20;99.90
22850;DHT22;11591;44.792;10.358;2022-08-01T10:04:20;29.20;99.90
22850;DHT22;11591;44.792;10.358;2022-08-01T10:06:49;29.20;99.90
22850;DHT22;11591;44.792;10.358;2022-08-01T10:09:28;29.30;99.90
22850;DHT22;11591;44.792;10.358;2022-08-01T10:11:55;29.30;99.90
22850;DHT22;11591;44.792;10.358;2022-08-01T10:14:23;29.30;99.90
22850;DHT22;11591;44.792;10.358;2022-08-01T10:16:52;29.40;99.90
22850;DHT22;11591;44.792;10.358;2022-08-01T10:19:21;29.50;99.90
22850;DHT22;11591;44.792;10.358;2022-08-01T10:21:52;29.50;99.90
22850;DHT22;11591;44.792;10.358;2022-08-01T10:24:20;29.50;99.90
22850;DHT22;11591;44.792;10.358;2022-08-01T10:26:49;29.60;99.90
22850;DHT22;11591;44.792;10.358;2022-08-01T10:29:17;29.60;99.90
22850;DHT22;11591;44.792;10.358;2022-08-01T10:31:45;29.60;99.90
22850;DHT22;11591;44.792;10.358;2022-08-01T10:34:13;29.60;99.90
22850;DHT22;11591;44.792;10.358;2022-08-01T10:36:58;29.60;99.90
22850;DHT22;11591;44.792;10.358;2022-08-01T10:39:25;29.70;99.90
22850;DHT22;11591;44.792;10.358;2022-08-01T10:41:54;29.70;99.90
22850;DHT22;11591;44.792;10.358;2022-08-01T10:44:22;29.70;99.90
22850;DHT22;11591;44.792;10.358;2022-08-01T10:46:50;29.70;99.90
22850;DHT22;11591;44.792;10.358;2022-08-01T10:49:20;29.80;99.60
22850;DHT22;11591;44.792;10.358;2022-08-01T10:51:48;29.80;99.60
22850;DHT22;11591;44.792;10.358;2022-08-01T10:54:14;29.80;99.60
22850;DHT22;11591;44.792;10.358;2022-08-01T10:56:49;29.80;99.00
22850;DHT22;11591;44.792;10.358;2022-08-01T10:59:26;29.90;98.80
22850;DHT22;11591;44.792;10.358;2022-08-01T11:04:42;29.90;98.20
22850;DHT22;11591;44.792;10.358;2022-08-01T11:07:21;30.00;98.60
22850;DHT22;11591;44.792;10.358;2022-08-01T11:10:38;30.00;99.00
22850;DHT22;11591;44.792;10.358;2022-08-01T11:12:39;30.10;99.20
22850;DHT22;11591;44.792;10.358;2022-08-01T11:18:52;30.20;99.30
22850;DHT22;11591;44.792;10.358;2022-08-01T11:21:17;30.30;99.30
22850;DHT22;11591;44.792;10.358;2022-08-01T11:23:48;30.40;98.60
22850;DHT22;11591;44.792;10.358;2022-08-01T11:26:15;30.40;98.60
22850;DHT22;11591;44.792;10.358;2022-08-01T11:28:42;30.50;98.80
22850;DHT22;11591;44.792;10.358;2022-08-01T11:38:46;30.70;98.00
22850;DHT22;11591;44.792;10.358;2022-08-01T11:41:30;30.70;98.30
22850;DHT22;11591;44.792;10.358;2022-08-01T11:52:12;30.90;98.80
22850;DHT22;11591;44.792;10.358;2022-08-01T11:57:18;31.10;97.60
22850;DHT22;11591;44.792;10.358;2022-08-01T11:59:46;31.20;97.00
22850;DHT22;11591;44.792;10.358;2022-08-01T12:02:28;31.30;96.60
22850;DHT22;11591;44.792;10.358;2022-08-01T12:04:57;31.40;96.80
22850;DHT22;11591;44.792;10.358;2022-08-01T12:07:24;31.40;97.60
22850;DHT22;11591;44.792;10.358;2022-08-01T12:10:08;31.40;97.90
22850;DHT22;11591;44.792;10.358;2022-08-01T12:12:36;31.40;96.50
22850;DHT22;11591;44.792;10.358;2022-08-01T12:15:04;31.60;96.20
22850;DHT22;11591;44.792;10.358;2022-08-01T12:17:42;31.60;96.70
22850;DHT22;11591;44.792;10.358;2022-08-01T12:20:12;31.70;95.70
22850;DHT22;11591;44.792;10.358;2022-08-01T12:22:38;31.70;95.60
22850;DHT22;11591;44.792;10.358;2022-08-01T12:25:13;31.70;95.60
22850;DHT22;11591;44.792;10.358;2022-08-01T12:27:41;31.80;95.80
22850;DHT22;11591;44.792;10.358;2022-08-01T12:30:09;31.80;96.20
22850;DHT22;11591;44.792;10.358;2022-08-01T12:32:37;31.80;96.00
22850;DHT22;11591;44.792;10.358;2022-08-01T12:35:08;31.90;96.20
22850;DHT22;11591;44.792;10.358;2022-08-01T12:40:17;32.00;96.00
22850;DHT22;11591;44.792;10.358;2022-08-01T12:42:45;32.00;95.90
22850;DHT22;11591;44.792;10.358;2022-08-01T12:45:18;32.10;95.30
22850;DHT22;11591;44.792;10.358;2022-08-01T12:47:45;32.10;94.80
22850;DHT22;11591;44.792;10.358;2022-08-01T12:50:14;32.10;94.60
22850;DHT22;11591;44.792;10.358;2022-08-01T12:52:41;32.20;94.90
22850;DHT22;11591;44.792;10.358;2022-08-01T12:55:16;32.20;94.90
22850;DHT22;11591;44.792;10.358;2022-08-01T12:57:59;32.10;94.90
22850;DHT22;11591;44.792;10.358;2022-08-01T13:00:28;32.20;94.20
22850;DHT22;11591;44.792;10.358;2022-08-01T13:03:13;32.30;93.70
22850;DHT22;11591;44.792;10.358;2022-08-01T13:05:52;32.50;93.50
22850;DHT22;11591;44.792;10.358;2022-08-01T13:08:29;32.50;93.70
22850;DHT22;11591;44.792;10.358;2022-08-01T13:11:06;32.60;92.70
22850;DHT22;11591;44.792;10.358;2022-08-01T13:13:44;32.60;92.70
22850;DHT22;11591;44.792;10.358;2022-08-01T13:16:16;32.70;93.10
22850;DHT22;11591;44.792;10.358;2022-08-01T13:18:48;32.70;93.60
22850;DHT22;11591;44.792;10.358;2022-08-01T13:21:19;32.80;93.40
22850;DHT22;11591;44.792;10.358;2022-08-01T13:24:08;32.80;92.90
22850;DHT22;11591;44.792;10.358;2022-08-01T13:29:05;32.90;92.40
22850;DHT22;11591;44.792;10.358;2022-08-01T13:31:35;32.90;92.50
22850;DHT22;11591;44.792;10.358;2022-08-01T13:34:01;32.90;92.20
22850;DHT22;11591;44.792;10.358;2022-08-01T13:36:27;32.90;92.10
22850;DHT22;11591;44.792;10.358;2022-08-01T13:38:54;32.90;92.70
22850;DHT22;11591;44.792;10.358;2022-08-01T13:41:39;33.00;92.70
22850;DHT22;11591;44.792;10.358;2022-08-01T13:44:05;33.00;93.20
22850;DHT22;11591;44.792;10.358;2022-08-01T13:46:31;33.10;93.10
22850;DHT22;11591;44.792;10.358;2022-08-01T13:48:57;33.10;92.80
22850;DHT22;11591;44.792;10.358;2022-08-01T13:51:23;33.20;93.10
22850;DHT22;11591;44.792;10.358;2022-08-01T13:53:49;33.20;92.80
22850;DHT22;11591;44.792;10.358;2022-08-01T13:56:15;33.30;92.90
22850;DHT22;11591;44.792;10.358;2022-08-01T13:58:44;33.40;92.80
22850;DHT22;11591;44.792;10.358;2022-08-01T14:01:10;33.50;92.70
22850;DHT22;11591;44.792;10.358;2022-08-01T14:03:35;33.50;92.50
22850;DHT22;11591;44.792;10.358;2022-08-01T14:06:02;33.50;92.30
22850;DHT22;11591;44.792;10.358;2022-08-01T14:08:28;33.50;92.20
22850;DHT22;11591;44.792;10.358;2022-08-01T14:10:53;33.50;92.10
22850;DHT22;11591;44.792;10.358;2022-08-01T14:13:23;33.60;92.20
22850;DHT22;11591;44.792;10.358;2022-08-01T14:15:48;33.60;92.40
22850;DHT22;11591;44.792;10.358;2022-08-01T14:18:15;33.60;92.20
22850;DHT22;11591;44.792;10.358;2022-08-01T14:20:42;33.70;92.20
22850;DHT22;11591;44.792;10.358;2022-08-01T14:23:08;33.70;92.50
22850;DHT22;11591;44.792;10.358;2022-08-01T14:25:35;33.80;92.70
22850;DHT22;11591;44.792;10.358;2022-08-01T14:28:01;33.80;92.80
22850;DHT22;11591;44.792;10.358;2022-08-01T14:30:27;33.90;92.70
22850;DHT22;11591;44.792;10.358;2022-08-01T14:32:53;33.90;92.70
22850;DHT22;11591;44.792;10.358;2022-08-01T14:35:19;34.00;92.70
22850;DHT22;11591;44.792;10.358;2022-08-01T14:37:44;34.00;92.90
22850;DHT22;11591;44.792;10.358;2022-08-01T14:40:10;34.00;93.00
22850;DHT22;11591;44.792;10.358;2022-08-01T14:42:38;34.10;93.00
22850;DHT22;11591;44.792;10.358;2022-08-01T14:45:05;34.10;92.90
22850;DHT22;11591;44.792;10.358;2022-08-01T14:47:38;34.20;92.40
22850;DHT22;11591;44.792;10.358;2022-08-01T14:50:06;34.30;92.30
22850;DHT22;11591;44.792;10.358;2022-08-01T14:52:33;34.30;92.50
22850;DHT22;11591;44.792;10.358;2022-08-01T14:54:59;34.30;92.20
22850;DHT22;11591;44.792;10.358;2022-08-01T14:57:25;34.30;92.30
22850;DHT22;11591;44.792;10.358;2022-08-01T14:59:51;34.40;92.10
22850;DHT22;11591;44.792;10.358;2022-08-01T15:02:17;34.40;92.10
22850;DHT22;11591;44.792;10.358;2022-08-01T15:04:45;34.40;92.40
22850;DHT22;11591;44.792;10.358;2022-08-01T15:07:11;34.50;92.10
22850;DHT22;11591;44.792;10.358;2022-08-01T15:09:37;34.50;92.20
22850;DHT22;11591;44.792;10.358;2022-08-01T15:12:03;34.50;92.40
22850;DHT22;11591;44.792;10.358;2022-08-01T15:14:29;34.50;92.20
22850;DHT22;11591;44.792;10.358;2022-08-01T15:17:14;34.50;92.20
22850;DHT22;11591;44.792;10.358;2022-08-01T15:19:40;34.60;91.90
22850;DHT22;11591;44.792;10.358;2022-08-01T15:22:06;34.60;91.90
22850;DHT22;11591;44.792;10.358;2022-08-01T15:24:31;34.70;92.20
22850;DHT22;11591;44.792;10.358;2022-08-01T15:26:57;34.70;92.40
22850;DHT22;11591;44.792;10.358;2022-08-01T15:29:23;34.80;92.20
22850;DHT22;11591;44.792;10.358;2022-08-01T15:31:49;34.80;91.90
22850;DHT22;11591;44.792;10.358;2022-08-01T15:34:15;34.80;91.50
22850;DHT22;11591;44.792;10.358;2022-08-01T15:36:41;34.80;91.10
22850;DHT22;11591;44.792;10.358;2022-08-01T15:39:09;34.80;91.30
22850;DHT22;11591;44.792;10.358;2022-08-01T15:41:35;34.80;91.50
22850;DHT22;11591;44.792;10.358;2022-08-01T15:44:01;34.80;91.80
22850;DHT22;11591;44.792;10.358;2022-08-01T15:46:27;34.80;91.90
22850;DHT22;11591;44.792;10.358;2022-08-01T15:48:52;34.80;91.20
22850;DHT22;11591;44.792;10.358;2022-08-01T15:51:18;34.80;91.20
22850;DHT22;11591;44.792;10.358;2022-08-01T15:53:44;34.80;90.90
22850;DHT22;11591;44.792;10.358;2022-08-01T15:56:12;34.80;91.00
22850;DHT22;11591;44.792;10.358;2022-08-01T15:58:38;34.80;91.40
22850;DHT22;11591;44.792;10.358;2022-08-01T16:01:04;34.90;91.40
22850;DHT22;11591;44.792;10.358;2022-08-01T16:03:30;34.90;91.40
22850;DHT22;11591;44.792;10.358;2022-08-01T16:05:55;34.90;91.40
22850;DHT22;11591;44.792;10.358;2022-08-01T16:08:21;34.90;91.50
22850;DHT22;11591;44.792;10.358;2022-08-01T16:10:47;35.00;91.50
22850;DHT22;11591;44.792;10.358;2022-08-01T16:13:13;35.10;91.40
22850;DHT22;11591;44.792;10.358;2022-08-01T16:15:39;35.10;91.00
22850;DHT22;11591;44.792;10.358;2022-08-01T16:18:06;35.10;90.40
22850;DHT22;11591;44.792;10.358;2022-08-01T16:20:33;35.00;90.30
22850;DHT22;11591;44.792;10.358;2022-08-01T16:22:59;35.10;90.40
22850;DHT22;11591;44.792;10.358;2022-08-01T16:25:25;35.00;90.80
22850;DHT22;11591;44.792;10.358;2022-08-01T16:27:51;35.10;90.60
22850;DHT22;11591;44.792;10.358;2022-08-01T16:30:17;35.10;90.70
22850;DHT22;11591;44.792;10.358;2022-08-01T16:32:42;35.10;91.20
22850;DHT22;11591;44.792;10.358;2022-08-01T16:35:08;35.10;90.90
22850;DHT22;11591;44.792;10.358;2022-08-01T16:37:34;35.20;91.00
22850;DHT22;11591;44.792;10.358;2022-08-01T16:40:00;35.20;91.30
22850;DHT22;11591;44.792;10.358;2022-08-01T16:42:26;35.30;91.40
22850;DHT22;11591;44.792;10.358;2022-08-01T16:44:51;35.40;91.60
22850;DHT22;11591;44.792;10.358;2022-08-01T16:47:17;35.40;91.60
22850;DHT22;11591;44.792;10.358;2022-08-01T16:49:43;35.40;91.40
22850;DHT22;11591;44.792;10.358;2022-08-01T16:52:09;35.50;91.30
22850;DHT22;11591;44.792;10.358;2022-08-01T16:54:35;35.50;91.40
22850;DHT22;11591;44.792;10.358;2022-08-01T16:57:01;35.50;91.20
22850;DHT22;11591;44.792;10.358;2022-08-01T16:59:26;35.60;91.50
22850;DHT22;11591;44.792;10.358;2022-08-01T17:01:52;35.60;91.00
22850;DHT22;11591;44.792;10.358;2022-08-01T17:04:18;35.60;91.40
22850;DHT22;11591;44.792;10.358;2022-08-01T17:06:44;35.60;90.60
22850;DHT22;11591;44.792;10.358;2022-08-01T17:09:11;35.70;90.60
22850;DHT22;11591;44.792;10.358;2022-08-01T17:11:37;35.80;90.40
22850;DHT22;11591;44.792;10.358;2022-08-01T17:14:11;35.90;90.30
22850;DHT22;11591;44.792;10.358;2022-08-01T17:16:37;35.90;90.70
22850;DHT22;11591;44.792;10.358;2022-08-01T17:19:03;35.90;90.60
22850;DHT22;11591;44.792;10.358;2022-08-01T17:21:30;35.90;90.30
22850;DHT22;11591;44.792;10.358;2022-08-01T17:23:55;35.90;90.20
22850;DHT22;11591;44.792;10.358;2022-08-01T17:26:21;35.90;90.30
22850;DHT22;11591;44.792;10.358;2022-08-01T17:28:47;36.00;90.40
22850;DHT22;11591;44.792;10.358;2022-08-01T17:31:13;36.00;90.40
22850;DHT22;11591;44.792;10.358;2022-08-01T17:33:39;36.00;90.60
22850;DHT22;11591;44.792;10.358;2022-08-01T17:36:06;36.00;90.80
22850;DHT22;11591;44.792;10.358;2022-08-01T17:38:32;36.00;90.90
22850;DHT22;11591;44.792;10.358;2022-08-01T17:40:58;36.00;91.00
22850;DHT22;11591;44.792;10.358;2022-08-01T17:43:24;36.00;91.10
22850;DHT22;11591;44.792;10.358;2022-08-01T17:45:49;36.00;90.90
22850;DHT22;11591;44.792;10.358;2022-08-01T17:48:18;36.00;91.20
22850;DHT22;11591;44.792;10.358;2022-08-01T17:50:45;36.00;91.20
22850;DHT22;11591;44.792;10.358;2022-08-01T17:53:12;36.00;91.40
22850;DHT22;11591;44.792;10.358;2022-08-01T17:55:38;35.90;91.30
22850;DHT22;11591;44.792;10.358;2022-08-01T17:58:07;35.90;91.40
22850;DHT22;11591;44.792;10.358;2022-08-01T18:00:33;35.80;91.40
22850;DHT22;11591;44.792;10.358;2022-08-01T18:03:00;35.80;91.50
22850;DHT22;11591;44.792;10.358;2022-08-01T18:05:26;35.70;91.30
22850;DHT22;11591;44.792;10.358;2022-08-01T18:07:51;35.60;91.40
22850;DHT22;11591;44.792;10.358;2022-08-01T18:10:17;35.50;91.50
22850;DHT22;11591;44.792;10.358;2022-08-01T18:12:43;35.40;91.50
22850;DHT22;11591;44.792;10.358;2022-08-01T18:15:09;35.30;91.60
22850;DHT22;11591;44.792;10.358;2022-08-01T18:17:35;35.20;91.90
22850;DHT22;11591;44.792;10.358;2022-08-01T18:20:01;35.00;92.00
22850;DHT22;11591;44.792;10.358;2022-08-01T18:22:26;34.80;92.10
22850;DHT22;11591;44.792;10.358;2022-08-01T18:24:52;34.70;92.10
22850;DHT22;11591;44.792;10.358;2022-08-01T18:27:18;34.50;92.20
22850;DHT22;11591;44.792;10.358;2022-08-01T18:29:44;34.40;92.20
22850;DHT22;11591;44.792;10.358;2022-08-01T18:32:09;34.30;92.40
22850;DHT22;11591;44.792;10.358;2022-08-01T18:34:35;34.20;92.60
22850;DHT22;11591;44.792;10.358;2022-08-01T18:37:01;34.10;92.70
22850;DHT22;11591;44.792;10.358;2022-08-01T18:39:27;34.00;92.90
22850;DHT22;11591;44.792;10.358;2022-08-01T18:41:53;33.90;93.00
22850;DHT22;11591;44.792;10.358;2022-08-01T18:44:18;33.90;93.30
22850;DHT22;11591;44.792;10.358;2022-08-01T18:46:47;33.80;93.40
22850;DHT22;11591;44.792;10.358;2022-08-01T18:49:13;33.70;93.50
22850;DHT22;11591;44.792;10.358;2022-08-01T18:51:38;33.60;93.50
22850;DHT22;11591;44.792;10.358;2022-08-01T18:54:05;33.50;93.60
22850;DHT22;11591;44.792;10.358;2022-08-01T18:56:31;33.50;93.80
22850;DHT22;11591;44.792;10.358;2022-08-01T18:58:57;33.40;93.90
22850;DHT22;11591;44.792;10.358;2022-08-01T19:01:23;33.40;94.30
22850;DHT22;11591;44.792;10.358;2022-08-01T19:03:49;33.30;94.50
22850;DHT22;11591;44.792;10.358;2022-08-01T19:06:14;33.20;94.70
22850;DHT22;11591;44.792;10.358;2022-08-01T19:08:40;33.20;94.90
22850;DHT22;11591;44.792;10.358;2022-08-01T19:11:06;33.10;95.00
22850;DHT22;11591;44.792;10.358;2022-08-01T19:13:32;33.10;95.10
22850;DHT22;11591;44.792;10.358;2022-08-01T19:15:58;33.00;95.20
22850;DHT22;11591;44.792;10.358;2022-08-01T19:18:24;32.90;95.10
22850;DHT22;11591;44.792;10.358;2022-08-01T19:20:51;32.90;95.20
22850;DHT22;11591;44.792;10.358;2022-08-01T19:23:17;32.80;95.10
22850;DHT22;11591;44.792;10.358;2022-08-01T19:26:03;32.80;95.20
22850;DHT22;11591;44.792;10.358;2022-08-01T19:28:35;32.80;95.20
22850;DHT22;11591;44.792;10.358;2022-08-01T19:31:04;32.70;95.50
22850;DHT22;11591;44.792;10.358;2022-08-01T19:33:31;32.70;95.70
22850;DHT22;11591;44.792;10.358;2022-08-01T19:35:58;32.70;95.60
22850;DHT22;11591;44.792;10.358;2022-08-01T19:38:26;32.60;96.00
22850;DHT22;11591;44.792;10.358;2022-08-01T19:40:52;32.60;96.20
22850;DHT22;11591;44.792;10.358;2022-08-01T19:43:20;32.60;95.50
22850;DHT22;11591;44.792;10.358;2022-08-01T19:45:48;32.60;95.40
22850;DHT22;11591;44.792;10.358;2022-08-01T19:48:14;32.50;95.20
22850;DHT22;11591;44.792;10.358;2022-08-01T19:50:40;32.50;95.00
22850;DHT22;11591;44.792;10.358;2022-08-01T19:53:10;32.40;94.90
22850;DHT22;11591;44.792;10.358;2022-08-01T19:55:37;32.40;94.90
22850;DHT22;11591;44.792;10.358;2022-08-01T19:58:05;32.40;94.90
22850;DHT22;11591;44.792;10.358;2022-08-01T20:00:32;32.40;95.00
22850;DHT22;11591;44.792;10.358;2022-08-01T20:03:02;32.30;94.80
22850;DHT22;11591;44.792;10.358;2022-08-01T20:05:28;32.30;94.70
22850;DHT22;11591;44.792;10.358;2022-08-01T20:07:54;32.30;94.90
22850;DHT22;11591;44.792;10.358;2022-08-01T20:10:20;32.30;94.60
22850;DHT22;11591;44.792;10.358;2022-08-01T20:12:46;32.20;93.50
22850;DHT22;11591;44.792;10.358;2022-08-01T20:15:13;32.20;92.60